Buoy 21539

sailwx.info

Track history (hours):
 
Tides and Currents Weather Stations Pressure Air Temp Water Temp Dewpoint Dewpoint Depression Visibility Wind Speed Wind Dir Waves Ship Positions

Drifting buoy 21539

Last reported at 2014-Aug-29 01:10 UTC. Time now 2014-Aug-29 03:35 UTC.
Position N 50°31' E 173°39'.

Barometer 1003.5 mb
Water temperature 11.6 ° C

Date/timePositionNaut miles runAvg speedWind from/ knotsBaromVisibWave heightAir tempDewpointWater temp
2014-Aug-29 01:10N 50°31' E 173°39'1 1.3 1003.5 11.6
2014-Aug-29 00:10N 50°32' E 173°39'2 2.1 1003.9 11.6
2014-Aug-28 23:10N 50°34' E 173°41'0 0.0 1004.3 11.6
2014-Aug-28 21:10N 50°34' E 173°41'2 0.5 1004.7 11.6
2014-Aug-28 17:10N 50°36' E 173°43'1 1.4 1005.4 11.5
2014-Aug-28 16:10N 50°35' E 173°45'0 0.0 1005.9 11.5
2014-Aug-28 15:10N 50°35' E 173°45'6 6.2 1006.0 11.5
2014-Aug-28 14:10N 50°39' E 173°53'0 0.0 1005.9 11.5
2014-Aug-28 12:10N 50°39' E 173°53'0 0.0 1006.2 11.6
2014-Aug-28 10:10N 50°39' E 173°53'8 7.6 1006.1 11.6
2014-Aug-28 09:10N 50°46' E 173°56'0 0.0 1006.0 11.7
2014-Aug-28 08:10N 50°46' E 173°56'0 0.0 1005.1 11.8
2014-Aug-28 06:10N 50°46' E 173°56'0 0.0 1003.5 11.9
2014-Aug-28 03:10N 50°46' E 173°56'5 2.3 1001.7 11.7
2014-Aug-28 01:10N 50°48' E 174°02'0 0.0 1002.1 11.6
2014-Aug-28 00:10N 50°48' E 174°02'0 0.0 1002.8 11.7
2014-Aug-27 23:10N 50°48' E 174°02'0 0.0 1003.9 11.7
2014-Aug-27 22:10N 50°48' E 174°02'0 0.0 1004.9 11.8
2014-Aug-27 20:10N 50°48' E 174°02'0 0.0 1005.8 11.7
2014-Aug-27 18:10N 50°48' E 174°02'7 1.5 1005.9 11.6
2014-Aug-27 13:10N 50°56' E 174°04'0 0.0 1009.1 11.5
2014-Aug-27 12:10N 50°56' E 174°04'0 0.0 1008.9 11.4
2014-Aug-27 09:10N 50°56' E 174°04'1 0.6 1008.3 11.4
2014-Aug-27 07:10N 50°56' E 174°06'6 1.5 1007.2 11.5
2014-Aug-27 03:10N 51°01' E 174°12'0 0.0 1006.7 11.5
2014-Aug-27 02:10N 51°01' E 174°12'0 0.0 1006.9 11.5
2014-Aug-27 01:10N 51°01' E 174°12'4 1.3 1007.2 11.4
2014-Aug-26 22:10N 51°04' E 174°10'0 0.0 1009.4 11.6
2014-Aug-26 21:10N 51°04' E 174°10'1 0.5 1009.7 11.6
2014-Aug-26 19:10N 51°04' E 174°09'0 0.1 1010.2 11.6
2014-Aug-26 18:10N 51°04' E 174°09'0 0.1 1010.3 11.6
2014-Aug-26 17:10N 51°04' E 174°09'0 0.0 1010.2 11.6
2014-Aug-26 16:10N 51°04' E 174°09'1 1.2 1010.5 11.6
2014-Aug-26 15:10N 51°05' E 174°08'6 2.0 1010.6 11.6
2014-Aug-26 12:10N 51°10' E 174°09'0 0.0 1011.7 11.7
2014-Aug-26 10:10N 51°10' E 174°09'0 0.0 1012.0 11.7
2014-Aug-26 08:10N 51°10' E 174°09'0 0.0 1011.9 11.7
2014-Aug-26 07:10N 51°10' E 174°09'0 0.0 1011.3 11.7
2014-Aug-26 04:10N 51°10' E 174°09'2 1.1 1010.7 11.6
2014-Aug-26 02:10N 51°11' E 174°06'0 0.0 1010.6 11.6
2014-Aug-26 01:10N 51°11' E 174°06'0 0.0 1010.6 11.6
2014-Aug-26 00:10N 51°11' E 174°06'1 0.6 1010.6 11.6
2014-Aug-25 22:10N 51°12' E 174°07'2 0.4 1010.9 11.6
2014-Aug-25 16:10N 51°14' E 174°05'0 0.0 1010.1 11.6
2014-Aug-25 15:10N 51°14' E 174°05'4 3.9 1010.3 11.6
2014-Aug-25 14:10N 51°16' E 173°60'0 0.0 1010.4 11.6
2014-Aug-25 12:10N 51°16' E 173°60'1 0.2 1010.3 11.6
2014-Aug-25 07:10N 51°15' E 173°59'2 1.1 1012.0 11.6
2014-Aug-25 05:10N 51°15' E 173°55'0 0.0 1013.9 11.8
2014-Aug-25 04:10N 51°15' E 173°55'0 0.0 1014.9 11.8
2014-Aug-25 03:10N 51°15' E 173°55'0 0.2 1016.0 12.0
2014-Aug-25 02:10N 51°15' E 173°55'0 0.1 1016.9 12.1
2014-Aug-25 00:10N 51°15' E 173°56'1 0.7 1018.4 12.1
2014-Aug-24 22:10N 51°14' E 173°54'2 2.2 1019.0 12.1
2014-Aug-24 21:10N 51°16' E 173°53'0 0.0 1019.2 12.1
2014-Aug-24 20:10N 51°16' E 173°53'0 0.0 1019.2 12.0
2014-Aug-24 19:10N 51°16' E 173°53'2 1.8 1019.6 12.1
2014-Aug-24 18:10N 51°16' E 173°50'0 0.0 1019.5 12.0
2014-Aug-24 17:10N 51°16' E 173°50'1 1.3 1019.4 12.0
2014-Aug-24 16:10N 51°16' E 173°48'2 1.8 1019.6 12.0
2014-Aug-24 15:10N 51°16' E 173°45'0 0.0 1019.7 12.0
2014-Aug-24 11:10N 51°16' E 173°45'2 0.8 1020.0 12.3
2014-Aug-24 08:10N 51°16' E 173°41'0 0.0 1019.5 12.4
2014-Aug-24 07:10N 51°16' E 173°41'0 0.0 1019.1 12.4
2014-Aug-24 06:10N 51°16' E 173°41'0 0.0 1018.7 12.4
2014-Aug-24 04:10N 51°16' E 173°41'0 0.0 1018.6 12.4
2014-Aug-24 03:10N 51°16' E 173°41'3 2.5 1018.3 12.5
2014-Aug-24 02:10N 51°18' E 173°39'0 0.0 1018.3 12.4
2014-Aug-24 01:10N 51°18' E 173°39'0 0.0 1018.4 12.1
2014-Aug-24 00:10N 51°18' E 173°39'5 1.3 1018.4 12.2
2014-Aug-23 20:10N 51°15' E 173°32'0 0.0 1017.6 11.8
2014-Aug-23 18:10N 51°15' E 173°32'0 0.0 1016.8 11.8
2014-Aug-23 17:10N 51°15' E 173°32'0 0.3 1016.5 11.8
2014-Aug-23 16:10N 51°15' E 173°33'2 1.8 1016.3 11.8
2014-Aug-23 15:10N 51°15' E 173°30'0 0.0 1016.4 11.8
2014-Aug-23 14:10N 51°15' E 173°30'3 1.4 1016.3 11.8
2014-Aug-23 12:10N 51°16' E 173°25'0 0.0 1015.7 11.8
2014-Aug-23 10:10N 51°16' E 173°25'4 3.9 1015.3 11.8
2014-Aug-23 09:10N 51°14' E 173°20'0 0.0 1015.0 11.8
2014-Aug-23 08:10N 51°14' E 173°20'1 0.7 1014.9 11.8
2014-Aug-23 06:10N 51°13' E 173°19'0 0.1 1013.4 11.8
2014-Aug-23 03:10N 51°12' E 173°19'2 1.5 1012.5 11.8
2014-Aug-23 02:10N 51°13' E 173°17'1 0.7 1012.6 11.7
2014-Aug-23 01:10N 51°13' E 173°16'5 2.6 1012.4 11.6
2014-Aug-22 23:10N 51°11' E 173°08'1 0.2 1011.7 11.6
2014-Aug-22 19:10N 51°11' E 173°09'4 2.0 1009.8 11.6
2014-Aug-22 17:10N 51°08' E 173°05'0 0.0 1008.6 11.6
2014-Aug-22 16:10N 51°08' E 173°05'0 0.0 1008.2 11.6
2014-Aug-22 15:10N 51°08' E 173°05'0 0.0 1007.9 11.6
2014-Aug-22 14:10N 51°08' E 173°05'1 0.2 1007.8 11.6
2014-Aug-22 08:10N 51°07' E 173°03'0 0.0 1006.5 11.6
2014-Aug-22 07:10N 51°07' E 173°03'1 0.8 1005.9 11.6
2014-Aug-22 06:10N 51°08' E 173°04'5 1.7 1005.6 11.6
2014-Aug-22 03:10N 51°06' E 172°57'0 0.0 1004.7 11.6
2014-Aug-22 01:10N 51°06' E 172°57'0 0.0 1004.6 11.5
2014-Aug-22 00:10N 51°06' E 172°57'4 4.2 1004.5 11.5
2014-Aug-21 23:10N 51°01' E 172°57'0 0.0 1004.8 11.4
2014-Aug-21 21:10N 51°01' E 172°57'0 0.0 1004.9 11.3
2014-Aug-21 18:10N 51°01' E 172°57'0 0.0 1004.4 11.3
2014-Aug-21 17:10N 51°01' E 172°57'0 0.4 1003.8 11.3
2014-Aug-21 16:10N 51°02' E 172°56'2 0.6 1003.7 11.3
2014-Aug-21 13:10N 50°60' E 172°57'1 0.6 1003.6 11.3
2014-Aug-21 12:10N 50°60' E 172°56'2 1.0 1003.8 11.3
2014-Aug-21 10:10N 50°58' E 172°54'1 0.3 1003.9 11.3
2014-Aug-21 08:10N 50°59' E 172°55'4 0.9 1003.7 11.3
2014-Aug-21 04:10N 50°55' E 172°57'0 0.0 1003.1 11.3
2014-Aug-21 03:10N 50°55' E 172°57'0 0.0 1003.3 11.3
2014-Aug-21 01:10N 50°55' E 172°57'0 0.0 1004.0 11.3
2014-Aug-21 00:10N 50°55' E 172°57'2 0.9 1004.2 11.3
2014-Aug-20 22:10N 50°54' E 172°55'0 0.0 1004.9 11.2
2014-Aug-20 21:10N 50°54' E 172°55'0 0.0 1005.1 11.2
2014-Aug-20 20:10N 50°54' E 172°55'0 0.0 1005.2 11.2
2014-Aug-20 19:10N 50°54' E 172°55'1 0.7 1005.3 11.2
2014-Aug-20 18:10N 50°53' E 172°56'4 0.7 1005.1 11.2
2014-Aug-20 13:10N 50°51' E 173°00'0 0.0 1005.3 11.2
2014-Aug-20 09:10N 50°51' E 173°00'3 1.1 1005.7 11.3
2014-Aug-20 06:10N 50°50' E 173°05'0 0.0 1004.4 11.3
2014-Aug-20 03:10N 50°50' E 173°05'4 3.9 1004.0 11.5
2014-Aug-20 02:10N 50°46' E 173°02'1 0.9 1004.2 11.6
2014-Aug-20 01:10N 50°45' E 173°03'0 0.0 1004.3 11.6
2014-Aug-20 00:10N 50°45' E 173°03'4 0.7 1004.2 11.6
2014-Aug-19 18:10N 50°45' E 173°09'2 0.9 1003.9 11.3
2014-Aug-19 16:10N 50°43' E 173°11'0 0.0 1004.0 11.4
2014-Aug-19 15:10N 50°43' E 173°11'0 0.0 1004.2 11.4
2014-Aug-19 14:10N 50°43' E 173°11'1 0.3 1004.4 11.4
2014-Aug-19 12:10N 50°44' E 173°11'6 2.1 1005.0 11.4
2014-Aug-19 09:10N 50°40' E 173°19'0 0.0 1005.5 11.5
2014-Aug-19 07:10N 50°40' E 173°19'0 0.0 1005.4 11.5
2014-Aug-19 06:10N 50°40' E 173°19'1 0.6 1005.4 11.5
2014-Aug-19 05:10N 50°40' E 173°20'0 0.0 1005.7 11.5
2014-Aug-19 04:10N 50°40' E 173°20'0 0.0 1006.1 11.5
2014-Aug-19 03:10N 50°40' E 173°20'2 2.5 1006.5 11.5
2014-Aug-19 02:10N 50°39' E 173°23'1 0.7 1007.3 11.5
2014-Aug-19 01:10N 50°40' E 173°22'   1008.0 11.5
Track history (hours):
 
Tides and Currents Weather Stations Pressure Air Temp Water Temp Dewpoint Dewpoint Depression Visibility Wind Speed Wind Dir Waves Ship Positions

Drifting buoy 21539

Last reported at 2014-Aug-29 01:10 UTC. Time now 2014-Aug-29 03:35 UTC.
Position N 50°31' E 173°39'.

Barometer 1003.5 mb
Water temperature 11.6 ° C

Date/timePositionNaut miles runAvg speedWind from/ knotsBaromVisibWave heightAir tempDewpointWater temp
2014-Aug-29 01:10N 50°31' E 173°39'1 1.3 1003.5 11.6
2014-Aug-29 00:10N 50°32' E 173°39'2 2.1 1003.9 11.6
2014-Aug-28 23:10N 50°34' E 173°41'0 0.0 1004.3 11.6
2014-Aug-28 21:10N 50°34' E 173°41'2 0.5 1004.7 11.6
2014-Aug-28 17:10N 50°36' E 173°43'1 1.4 1005.4 11.5
2014-Aug-28 16:10N 50°35' E 173°45'0 0.0 1005.9 11.5
2014-Aug-28 15:10N 50°35' E 173°45'6 6.2 1006.0 11.5
2014-Aug-28 14:10N 50°39' E 173°53'0 0.0 1005.9 11.5
2014-Aug-28 12:10N 50°39' E 173°53'0 0.0 1006.2 11.6
2014-Aug-28 10:10N 50°39' E 173°53'8 7.6 1006.1 11.6
2014-Aug-28 09:10N 50°46' E 173°56'0 0.0 1006.0 11.7
2014-Aug-28 08:10N 50°46' E 173°56'0 0.0 1005.1 11.8
2014-Aug-28 06:10N 50°46' E 173°56'0 0.0 1003.5 11.9
2014-Aug-28 03:10N 50°46' E 173°56'5 2.3 1001.7 11.7
2014-Aug-28 01:10N 50°48' E 174°02'0 0.0 1002.1 11.6
2014-Aug-28 00:10N 50°48' E 174°02'0 0.0 1002.8 11.7
2014-Aug-27 23:10N 50°48' E 174°02'0 0.0 1003.9 11.7
2014-Aug-27 22:10N 50°48' E 174°02'0 0.0 1004.9 11.8
2014-Aug-27 20:10N 50°48' E 174°02'0 0.0 1005.8 11.7
2014-Aug-27 18:10N 50°48' E 174°02'7 1.5 1005.9 11.6
2014-Aug-27 13:10N 50°56' E 174°04'0 0.0 1009.1 11.5
2014-Aug-27 12:10N 50°56' E 174°04'0 0.0 1008.9 11.4
2014-Aug-27 09:10N 50°56' E 174°04'1 0.6 1008.3 11.4
2014-Aug-27 07:10N 50°56' E 174°06'6 1.5 1007.2 11.5
2014-Aug-27 03:10N 51°01' E 174°12'0 0.0 1006.7 11.5
2014-Aug-27 02:10N 51°01' E 174°12'0 0.0 1006.9 11.5
2014-Aug-27 01:10N 51°01' E 174°12'4 1.3 1007.2 11.4
2014-Aug-26 22:10N 51°04' E 174°10'0 0.0 1009.4 11.6
2014-Aug-26 21:10N 51°04' E 174°10'1 0.5 1009.7 11.6
2014-Aug-26 19:10N 51°04' E 174°09'0 0.1 1010.2 11.6
2014-Aug-26 18:10N 51°04' E 174°09'0 0.1 1010.3 11.6
2014-Aug-26 17:10N 51°04' E 174°09'0 0.0 1010.2 11.6
2014-Aug-26 16:10N 51°04' E 174°09'1 1.2 1010.5 11.6
2014-Aug-26 15:10N 51°05' E 174°08'6 2.0 1010.6 11.6
2014-Aug-26 12:10N 51°10' E 174°09'0 0.0 1011.7 11.7
2014-Aug-26 10:10N 51°10' E 174°09'0 0.0 1012.0 11.7
2014-Aug-26 08:10N 51°10' E 174°09'0 0.0 1011.9 11.7
2014-Aug-26 07:10N 51°10' E 174°09'0 0.0 1011.3 11.7
2014-Aug-26 04:10N 51°10' E 174°09'2 1.1 1010.7 11.6
2014-Aug-26 02:10N 51°11' E 174°06'0 0.0 1010.6 11.6
2014-Aug-26 01:10N 51°11' E 174°06'0 0.0 1010.6 11.6
2014-Aug-26 00:10N 51°11' E 174°06'1 0.6 1010.6 11.6
2014-Aug-25 22:10N 51°12' E 174°07'2 0.4 1010.9 11.6
2014-Aug-25 16:10N 51°14' E 174°05'0 0.0 1010.1 11.6
2014-Aug-25 15:10N 51°14' E 174°05'4 3.9 1010.3 11.6
2014-Aug-25 14:10N 51°16' E 173°60'0 0.0 1010.4 11.6
2014-Aug-25 12:10N 51°16' E 173°60'1 0.2 1010.3 11.6
2014-Aug-25 07:10N 51°15' E 173°59'2 1.1 1012.0 11.6
2014-Aug-25 05:10N 51°15' E 173°55'0 0.0 1013.9 11.8
2014-Aug-25 04:10N 51°15' E 173°55'0 0.0 1014.9 11.8
2014-Aug-25 03:10N 51°15' E 173°55'0 0.2 1016.0 12.0
2014-Aug-25 02:10N 51°15' E 173°55'0 0.1 1016.9 12.1
2014-Aug-25 00:10N 51°15' E 173°56'1 0.7 1018.4 12.1
2014-Aug-24 22:10N 51°14' E 173°54'2 2.2 1019.0 12.1
2014-Aug-24 21:10N 51°16' E 173°53'0 0.0 1019.2 12.1
2014-Aug-24 20:10N 51°16' E 173°53'0 0.0 1019.2 12.0
2014-Aug-24 19:10N 51°16' E 173°53'2 1.8 1019.6 12.1
2014-Aug-24 18:10N 51°16' E 173°50'0 0.0 1019.5 12.0
2014-Aug-24 17:10N 51°16' E 173°50'1 1.3 1019.4 12.0
2014-Aug-24 16:10N 51°16' E 173°48'2 1.8 1019.6 12.0
2014-Aug-24 15:10N 51°16' E 173°45'0 0.0 1019.7 12.0
2014-Aug-24 11:10N 51°16' E 173°45'2 0.8 1020.0 12.3
2014-Aug-24 08:10N 51°16' E 173°41'0 0.0 1019.5 12.4
2014-Aug-24 07:10N 51°16' E 173°41'0 0.0 1019.1 12.4
2014-Aug-24 06:10N 51°16' E 173°41'0 0.0 1018.7 12.4
2014-Aug-24 04:10N 51°16' E 173°41'0 0.0 1018.6 12.4
2014-Aug-24 03:10N 51°16' E 173°41'3 2.5 1018.3 12.5
2014-Aug-24 02:10N 51°18' E 173°39'0 0.0 1018.3 12.4
2014-Aug-24 01:10N 51°18' E 173°39'0 0.0 1018.4 12.1
2014-Aug-24 00:10N 51°18' E 173°39'5 1.3 1018.4 12.2
2014-Aug-23 20:10N 51°15' E 173°32'0 0.0 1017.6 11.8
2014-Aug-23 18:10N 51°15' E 173°32'0 0.0 1016.8 11.8
2014-Aug-23 17:10N 51°15' E 173°32'0 0.3 1016.5 11.8
2014-Aug-23 16:10N 51°15' E 173°33'2 1.8 1016.3 11.8
2014-Aug-23 15:10N 51°15' E 173°30'0 0.0 1016.4 11.8
2014-Aug-23 14:10N 51°15' E 173°30'3 1.4 1016.3 11.8
2014-Aug-23 12:10N 51°16' E 173°25'0 0.0 1015.7 11.8
2014-Aug-23 10:10N 51°16' E 173°25'4 3.9 1015.3 11.8
2014-Aug-23 09:10N 51°14' E 173°20'0 0.0 1015.0 11.8
2014-Aug-23 08:10N 51°14' E 173°20'1 0.7 1014.9 11.8
2014-Aug-23 06:10N 51°13' E 173°19'0 0.1 1013.4 11.8
2014-Aug-23 03:10N 51°12' E 173°19'2 1.5 1012.5 11.8
2014-Aug-23 02:10N 51°13' E 173°17'1 0.7 1012.6 11.7
2014-Aug-23 01:10N 51°13' E 173°16'5 2.6 1012.4 11.6
2014-Aug-22 23:10N 51°11' E 173°08'1 0.2 1011.7 11.6
2014-Aug-22 19:10N 51°11' E 173°09'4 2.0 1009.8 11.6
2014-Aug-22 17:10N 51°08' E 173°05'0 0.0 1008.6 11.6
2014-Aug-22 16:10N 51°08' E 173°05'0 0.0 1008.2 11.6
2014-Aug-22 15:10N 51°08' E 173°05'0 0.0 1007.9 11.6
2014-Aug-22 14:10N 51°08' E 173°05'1 0.2 1007.8 11.6
2014-Aug-22 08:10N 51°07' E 173°03'0 0.0 1006.5 11.6
2014-Aug-22 07:10N 51°07' E 173°03'1 0.8 1005.9 11.6
2014-Aug-22 06:10N 51°08' E 173°04'5 1.7 1005.6 11.6
2014-Aug-22 03:10N 51°06' E 172°57'0 0.0 1004.7 11.6
2014-Aug-22 01:10N 51°06' E 172°57'0 0.0 1004.6 11.5
2014-Aug-22 00:10N 51°06' E 172°57'4 4.2 1004.5 11.5
2014-Aug-21 23:10N 51°01' E 172°57'0 0.0 1004.8 11.4
2014-Aug-21 21:10N 51°01' E 172°57'0 0.0 1004.9 11.3
2014-Aug-21 18:10N 51°01' E 172°57'0 0.0 1004.4 11.3
2014-Aug-21 17:10N 51°01' E 172°57'0 0.4 1003.8 11.3
2014-Aug-21 16:10N 51°02' E 172°56'2 0.6 1003.7 11.3
2014-Aug-21 13:10N 50°60' E 172°57'1 0.6 1003.6 11.3
2014-Aug-21 12:10N 50°60' E 172°56'2 1.0 1003.8 11.3
2014-Aug-21 10:10N 50°58' E 172°54'1 0.3 1003.9 11.3
2014-Aug-21 08:10N 50°59' E 172°55'4 0.9 1003.7 11.3
2014-Aug-21 04:10N 50°55' E 172°57'0 0.0 1003.1 11.3
2014-Aug-21 03:10N 50°55' E 172°57'0 0.0 1003.3 11.3
2014-Aug-21 01:10N 50°55' E 172°57'0 0.0 1004.0 11.3
2014-Aug-21 00:10N 50°55' E 172°57'2 0.9 1004.2 11.3
2014-Aug-20 22:10N 50°54' E 172°55'0 0.0 1004.9 11.2
2014-Aug-20 21:10N 50°54' E 172°55'0 0.0 1005.1 11.2
2014-Aug-20 20:10N 50°54' E 172°55'0 0.0 1005.2 11.2
2014-Aug-20 19:10N 50°54' E 172°55'1 0.7 1005.3 11.2
2014-Aug-20 18:10N 50°53' E 172°56'4 0.7 1005.1 11.2
2014-Aug-20 13:10N 50°51' E 173°00'0 0.0 1005.3 11.2
2014-Aug-20 09:10N 50°51' E 173°00'3 1.1 1005.7 11.3
2014-Aug-20 06:10N 50°50' E 173°05'0 0.0 1004.4 11.3
2014-Aug-20 03:10N 50°50' E 173°05'4 3.9 1004.0 11.5
2014-Aug-20 02:10N 50°46' E 173°02'1 0.9 1004.2 11.6
2014-Aug-20 01:10N 50°45' E 173°03'0 0.0 1004.3 11.6
2014-Aug-20 00:10N 50°45' E 173°03'4 0.7 1004.2 11.6
2014-Aug-19 18:10N 50°45' E 173°09'2 0.9 1003.9 11.3
2014-Aug-19 16:10N 50°43' E 173°11'0 0.0 1004.0 11.4
2014-Aug-19 15:10N 50°43' E 173°11'0 0.0 1004.2 11.4
2014-Aug-19 14:10N 50°43' E 173°11'1 0.3 1004.4 11.4
2014-Aug-19 12:10N 50°44' E 173°11'6 2.1 1005.0 11.4
2014-Aug-19 09:10N 50°40' E 173°19'0 0.0 1005.5 11.5
2014-Aug-19 07:10N 50°40' E 173°19'0 0.0 1005.4 11.5
2014-Aug-19 06:10N 50°40' E 173°19'1 0.6 1005.4 11.5
2014-Aug-19 05:10N 50°40' E 173°20'0 0.0 1005.7 11.5
2014-Aug-19 04:10N 50°40' E 173°20'0 0.0 1006.1 11.5
2014-Aug-19 03:10N 50°40' E 173°20'2 2.5 1006.5 11.5
2014-Aug-19 02:10N 50°39' E 173°23'1 0.7 1007.3 11.5
2014-Aug-19 01:10N 50°40' E 173°22'   1008.0 11.5

Dump ship's entire track history